Friday, December 14, 2018, 7:37 PM EST
Back to Local

KIJD, Willimantic Windham Airport

Location: North Windham, CT, United States Lat: 41.75
Local Time: 7:37 PM EST ( 0:37 GMT) Lon: -72.183
Time Zone: US/Eastern Elev: 246 ft

Show me the last for .
Show Decoded

2018-12-14 19:23 METAR KIJD 150023Z AUTO 00000KT 10SM OVC009 04/02 A3034 RMK AO2 T00440022 =
2018-12-14 18:52 METAR KIJD 142352Z AUTO 00000KT 10SM OVC010 04/02 A3035 RMK AO2 SLP278 T00390022
                 10078 20039 58015 =
2018-12-14 18:41 METAR KIJD 142341Z AUTO 00000KT 10SM BKN010 BKN014 OVC022 04/02 A3035 RMK AO2
                 T00440022 =
2018-12-14 17:52 METAR KIJD 142252Z AUTO 00000KT 10SM SCT018 BKN024 OVC028 05/03 A3037 RMK AO2
                 SLP286 T00500028 =
2018-12-14 17:41 METAR KIJD 142241Z AUTO 00000KT 10SM FEW018 BKN024 OVC030 05/03 A3038 RMK AO2
                 T00500028 =
2018-12-14 16:52 METAR KIJD 142152Z AUTO 16003KT 10SM BKN031 07/03 A3038 RMK AO2 SLP289 T00670033
                 =
2018-12-14 16:31 METAR KIJD 142131Z AUTO 17003KT 10SM SCT020 OVC031 07/03 A3038 RMK AO2 T00670033
                 =
2018-12-14 15:52 METAR KIJD 142052Z AUTO 18004KT 10SM BKN023 OVC029 07/03 A3039 RMK AO2 SLP293
                 T00720033 56007 =
2018-12-14 14:59 METAR KIJD 141959Z AUTO 19005KT 10SM BKN024 OVC055 07/03 A3040 RMK AO2 T00720028
                 =
2018-12-14 14:52 METAR KIJD 141952Z AUTO 20006KT 10SM SCT024 OVC055 08/03 A3040 RMK AO2 SLP295
                 T00780028 =
2018-12-14 13:52 METAR KIJD 141852Z AUTO 18004KT 10SM OVC055 07/02 A3040 RMK AO2 SLP294 T00720022
                 =
2018-12-14 12:52 METAR KIJD 141752Z AUTO 18004KT 10SM OVC055 07/02 A3041 RMK AO2 SLP299 T00720022
                 10072 21033 58042 =
2018-12-14 11:52 METAR KIJD 141652Z AUTO 19006KT 10SM FEW060 06/02 A3045 RMK AO2 SLP314 T00610017
                 =
2018-12-14 10:52 METAR KIJD 141552Z AUTO VRB03KT 10SM CLR 04/01 A3051 RMK AO2 SLP333 T00440006 =
2018-12-14 09:52 METAR KIJD 141452Z AUTO 00000KT 10SM CLR 02/M01 A3054 RMK AO2 SLP342 T00221011
                 53006 =
2018-12-14 08:52 METAR KIJD 141352Z AUTO 05004KT 10SM CLR M01/M03 A3052 RMK AO2 SLP338 T10111033
                 =
2018-12-14 08:15 METAR KIJD 141315Z AUTO 00000KT 10SM SCT019 M02/M03 A3053 RMK AO2 T10221033 =
2018-12-14 07:52 METAR KIJD 141252Z AUTO 05003KT 10SM OVC018 M02/M03 A3052 RMK AO2 SLP339
                 T10221033 =
2018-12-14 06:52 METAR KIJD 141152Z AUTO 06004KT 10SM OVC018 M03/M04 A3052 RMK AO2 SLP337
                 T10331039 10000 21044 53001 =
2018-12-14 06:16 METAR KIJD 141116Z AUTO 00000KT 10SM BKN018 M04/M04 A3052 RMK AO2 T10391044 =
2018-12-14 05:52 METAR KIJD 141052Z AUTO 06004KT 10SM FEW041 M04/M05 A3051 RMK AO2 SLP335
                 T10441050 =
2018-12-14 04:52 METAR KIJD 140952Z AUTO 00000KT 10SM OVC043 M03/M04 A3051 RMK AO2 SLP333
                 T10281039 =
2018-12-14 03:52 METAR KIJD 140852Z AUTO 00000KT 10SM BKN047 M02/M04 A3051 RMK AO2 SLP335
                 T10171039 58009 =
2018-12-14 02:52 METAR KIJD 140752Z AUTO 00000KT 10SM OVC050 M01/M03 A3053 RMK AO2 SLP339
                 T10061033 =
2018-12-14 01:52 METAR KIJD 140652Z AUTO 35003KT 10SM FEW018 OVC050 00/M03 A3054 RMK AO2 SLP343
                 T00001033 =
2018-12-14 01:47 METAR KIJD 140647Z AUTO 01003KT 10SM SCT019 OVC050 00/M03 A3054 RMK AO2 =
2018-12-14 00:52 METAR KIJD 140552Z AUTO 03003KT 10SM OVC022 00/M03 A3055 RMK AO2 SLP346
                 T00001033 10000 21006 50001 =
2018-12-13 23:52 METAR KIJD 140452Z AUTO 00000KT 10SM OVC022 00/M03 A3055 RMK AO2 SLP347
                 T00001033 400061067 =
2018-12-13 22:52 METAR KIJD 140352Z AUTO 00000KT 10SM BKN023 OVC050 00/M03 A3055 RMK AO2 SLP346
                 T00001033 =
2018-12-13 21:52 METAR KIJD 140252Z AUTO 00000KT 10SM OVC050 00/M04 A3054 RMK AO2 SLP345
                 T00001039 53003 =
2018-12-13 20:52 METAR KIJD 140152Z AUTO 01003KT 10SM OVC050 00/M04 A3054 RMK AO2 SLP344
                 T00001039 =
2018-12-13 19:52 METAR KIJD 140052Z AUTO 07004KT 10SM SCT024 OVC055 00/M04 A3053 RMK AO2 SLP343
                 T00001039 =

Support USWX by starting your Amazon purchase here.